sensor_id;sensor_type;location;lat;lon;timestamp;pressure;altitude;pressure_sealevel;temperature;humidity
74975;BME280;68459;50.836;19.138;2023-08-06T00:02:03;97498.25;;;18.73;80.82
74975;BME280;68459;50.836;19.138;2023-08-06T00:05:07;97481.84;;;18.73;80.94
74975;BME280;68459;50.836;19.138;2023-08-06T00:08:11;97470.63;;;18.74;80.88
74975;BME280;68459;50.836;19.138;2023-08-06T00:11:15;97473.06;;;18.76;80.88
74975;BME280;68459;50.836;19.138;2023-08-06T00:14:20;97473.88;;;18.76;80.90
74975;BME280;68459;50.836;19.138;2023-08-06T00:17:23;97479.63;;;18.75;80.98
74975;BME280;68459;50.836;19.138;2023-08-06T00:20:27;97460.81;;;18.73;80.87
74975;BME280;68459;50.836;19.138;2023-08-06T00:23:31;97443.91;;;18.71;80.98
74975;BME280;68459;50.836;19.138;2023-08-06T00:26:35;97418.53;;;18.71;81.21
74975;BME280;68459;50.836;19.138;2023-08-06T00:29:40;97390.59;;;18.74;81.01
74975;BME280;68459;50.836;19.138;2023-08-06T00:32:44;97365.19;;;18.73;80.95
74975;BME280;68459;50.836;19.138;2023-08-06T00:35:48;97350.72;;;18.73;80.98
74975;BME280;68459;50.836;19.138;2023-08-06T00:38:52;97337.06;;;18.73;80.88
74975;BME280;68459;50.836;19.138;2023-08-06T00:41:57;97299.94;;;18.72;81.17
74975;BME280;68459;50.836;19.138;2023-08-06T00:45:03;97281.13;;;18.70;81.32
74975;BME280;68459;50.836;19.138;2023-08-06T00:48:08;97295.09;;;18.69;81.25
74975;BME280;68459;50.836;19.138;2023-08-06T00:51:11;97349.22;;;18.67;81.09
74975;BME280;68459;50.836;19.138;2023-08-06T00:54:16;97359.63;;;18.65;81.22
74975;BME280;68459;50.836;19.138;2023-08-06T00:57:21;97353.38;;;18.64;81.15
74975;BME280;68459;50.836;19.138;2023-08-06T01:00:29;97349.84;;;18.64;81.48
74975;BME280;68459;50.836;19.138;2023-08-06T01:03:33;97322.53;;;18.64;81.40
74975;BME280;68459;50.836;19.138;2023-08-06T01:06:42;97284.78;;;18.66;81.73
74975;BME280;68459;50.836;19.138;2023-08-06T01:09:55;97267.59;;;18.65;81.53
74975;BME280;68459;50.836;19.138;2023-08-06T01:13:09;97181.63;;;18.63;81.49
74975;BME280;68459;50.836;19.138;2023-08-06T01:16:20;97193.19;;;18.60;81.36
74975;BME280;68459;50.836;19.138;2023-08-06T01:19:24;97194.88;;;18.56;81.49
74975;BME280;68459;50.836;19.138;2023-08-06T01:22:29;97170.81;;;18.58;81.65
74975;BME280;68459;50.836;19.138;2023-08-06T01:25:34;97153.91;;;18.56;81.43
74975;BME280;68459;50.836;19.138;2023-08-06T01:28:47;97136.53;;;18.51;81.57
74975;BME280;68459;50.836;19.138;2023-08-06T01:31:55;97088.84;;;18.49;81.61
74975;BME280;68459;50.836;19.138;2023-08-06T01:35:00;97087.22;;;18.48;81.43
74975;BME280;68459;50.836;19.138;2023-08-06T01:38:07;97039.81;;;18.44;81.85
74975;BME280;68459;50.836;19.138;2023-08-06T01:41:11;97003.22;;;18.45;81.63
74975;BME280;68459;50.836;19.138;2023-08-06T01:44:15;97017.66;;;18.45;81.93
74975;BME280;68459;50.836;19.138;2023-08-06T01:47:19;97094.13;;;18.45;82.00
74975;BME280;68459;50.836;19.138;2023-08-06T01:50:23;97094.38;;;18.35;82.13
74975;BME280;68459;50.836;19.138;2023-08-06T01:53:28;97046.47;;;18.29;82.09
74975;BME280;68459;50.836;19.138;2023-08-06T01:56:32;97040.84;;;18.26;82.14
74975;BME280;68459;50.836;19.138;2023-08-06T01:59:36;97050.94;;;18.25;82.05
74975;BME280;68459;50.836;19.138;2023-08-06T02:02:40;97036.19;;;18.26;82.42
74975;BME280;68459;50.836;19.138;2023-08-06T02:05:44;97067.50;;;18.29;82.31
74975;BME280;68459;50.836;19.138;2023-08-06T02:08:50;97104.91;;;18.28;82.16
74975;BME280;68459;50.836;19.138;2023-08-06T02:11:54;97128.38;;;18.29;82.10
74975;BME280;68459;50.836;19.138;2023-08-06T02:14:57;97146.38;;;18.30;82.42
74975;BME280;68459;50.836;19.138;2023-08-06T02:18:01;97138.38;;;18.34;82.22
74975;BME280;68459;50.836;19.138;2023-08-06T02:21:05;97119.44;;;18.37;82.46
74975;BME280;68459;50.836;19.138;2023-08-06T02:24:10;97106.75;;;18.41;82.68
74975;BME280;68459;50.836;19.138;2023-08-06T02:27:14;97113.53;;;18.44;82.33
74975;BME280;68459;50.836;19.138;2023-08-06T02:30:18;97102.81;;;18.47;82.29
74975;BME280;68459;50.836;19.138;2023-08-06T02:33:22;97115.34;;;18.48;82.33
74975;BME280;68459;50.836;19.138;2023-08-06T02:36:26;97119.69;;;18.49;82.58
74975;BME280;68459;50.836;19.138;2023-08-06T02:39:35;97126.41;;;18.52;82.48
74975;BME280;68459;50.836;19.138;2023-08-06T02:42:42;97123.38;;;18.53;82.41
74975;BME280;68459;50.836;19.138;2023-08-06T02:45:46;97109.41;;;18.55;82.55
74975;BME280;68459;50.836;19.138;2023-08-06T02:48:49;97102.03;;;18.56;82.53
74975;BME280;68459;50.836;19.138;2023-08-06T02:51:53;97088.59;;;18.59;82.50
74975;BME280;68459;50.836;19.138;2023-08-06T02:54:59;97075.44;;;18.61;82.61
74975;BME280;68459;50.836;19.138;2023-08-06T02:58:05;97076.25;;;18.62;82.48
74975;BME280;68459;50.836;19.138;2023-08-06T03:01:13;97061.94;;;18.65;82.68
74975;BME280;68459;50.836;19.138;2023-08-06T03:04:24;97063.56;;;18.66;82.70
74975;BME280;68459;50.836;19.138;2023-08-06T03:07:28;97065.16;;;18.67;82.46
74975;BME280;68459;50.836;19.138;2023-08-06T03:10:41;97060.81;;;18.66;82.54
74975;BME280;68459;50.836;19.138;2023-08-06T03:13:45;97049.91;;;18.66;82.63
74975;BME280;68459;50.836;19.138;2023-08-06T03:16:51;97051.50;;;18.67;82.60
74975;BME280;68459;50.836;19.138;2023-08-06T03:19:55;97044.13;;;18.67;82.64
74975;BME280;68459;50.836;19.138;2023-08-06T03:22:59;97034.00;;;18.68;82.60
74975;BME280;68459;50.836;19.138;2023-08-06T03:26:06;97030.47;;;18.67;82.59
74975;BME280;68459;50.836;19.138;2023-08-06T03:29:11;97033.50;;;18.66;82.85
74975;BME280;68459;50.836;19.138;2023-08-06T03:32:17;97028.84;;;18.66;82.83
74975;BME280;68459;50.836;19.138;2023-08-06T03:35:21;97029.34;;;18.68;82.77
74975;BME280;68459;50.836;19.138;2023-08-06T03:38:25;97036.91;;;18.71;82.66
74975;BME280;68459;50.836;19.138;2023-08-06T03:41:31;97032.25;;;18.72;82.92
74975;BME280;68459;50.836;19.138;2023-08-06T03:44:35;97027.28;;;18.74;82.97
74975;BME280;68459;50.836;19.138;2023-08-06T03:47:40;97022.94;;;18.73;82.84
74975;BME280;68459;50.836;19.138;2023-08-06T03:50:44;97017.97;;;18.75;82.95
74975;BME280;68459;50.836;19.138;2023-08-06T03:53:50;97020.41;;;18.76;82.92
74975;BME280;68459;50.836;19.138;2023-08-06T03:56:55;97020.06;;;18.78;82.73
74975;BME280;68459;50.836;19.138;2023-08-06T03:59:59;97018.94;;;18.79;82.86
74975;BME280;68459;50.836;19.138;2023-08-06T04:03:04;97028.75;;;18.80;82.94
74975;BME280;68459;50.836;19.138;2023-08-06T04:06:08;97020.22;;;18.81;82.87
74975;BME280;68459;50.836;19.138;2023-08-06T04:09:13;97019.59;;;18.84;82.91
74975;BME280;68459;50.836;19.138;2023-08-06T04:12:18;97021.41;;;18.89;83.03
74975;BME280;68459;50.836;19.138;2023-08-06T04:15:24;97016.09;;;18.93;82.97
74975;BME280;68459;50.836;19.138;2023-08-06T04:18:27;97010.78;;;18.96;82.83
74975;BME280;68459;50.836;19.138;2023-08-06T04:21:31;97010.16;;;18.99;82.65
74975;BME280;68459;50.836;19.138;2023-08-06T04:24:35;97003.25;;;19.02;82.71
74975;BME280;68459;50.836;19.138;2023-08-06T04:27:40;97002.59;;;19.05;82.79
74975;BME280;68459;50.836;19.138;2023-08-06T04:30:45;97005.03;;;19.06;82.82
74975;BME280;68459;50.836;19.138;2023-08-06T04:33:49;97003.59;;;19.09;82.67
74975;BME280;68459;50.836;19.138;2023-08-06T04:36:52;97000.22;;;19.12;82.71
74975;BME280;68459;50.836;19.138;2023-08-06T04:39:56;97010.22;;;19.16;82.72
74975;BME280;68459;50.836;19.138;2023-08-06T04:43:01;96992.34;;;19.19;82.81
74975;BME280;68459;50.836;19.138;2023-08-06T04:46:08;96990.41;;;19.19;82.56
74975;BME280;68459;50.836;19.138;2023-08-06T04:49:12;96990.91;;;19.21;82.77
74975;BME280;68459;50.836;19.138;2023-08-06T04:52:15;96993.00;;;19.25;82.82
74975;BME280;68459;50.836;19.138;2023-08-06T04:55:19;96990.75;;;19.27;82.66
74975;BME280;68459;50.836;19.138;2023-08-06T04:58:24;96991.25;;;19.29;82.71
74975;BME280;68459;50.836;19.138;2023-08-06T05:01:28;96985.47;;;19.30;82.76
74975;BME280;68459;50.836;19.138;2023-08-06T05:04:32;96988.66;;;19.32;82.44
74975;BME280;68459;50.836;19.138;2023-08-06T05:07:37;96994.47;;;19.31;82.68
74975;BME280;68459;50.836;19.138;2023-08-06T05:10:42;96997.19;;;19.31;82.58
74975;BME280;68459;50.836;19.138;2023-08-06T05:13:48;96986.25;;;19.31;82.58
74975;BME280;68459;50.836;19.138;2023-08-06T05:16:52;96981.91;;;19.30;82.62
74975;BME280;68459;50.836;19.138;2023-08-06T05:19:55;96989.00;;;19.31;82.68
74975;BME280;68459;50.836;19.138;2023-08-06T05:22:59;96977.25;;;19.30;82.79
74975;BME280;68459;50.836;19.138;2023-08-06T05:26:03;96981.56;;;19.31;82.85
74975;BME280;68459;50.836;19.138;2023-08-06T05:29:08;96973.38;;;19.31;82.84
74975;BME280;68459;50.836;19.138;2023-08-06T05:32:11;96964.72;;;19.29;82.65
74975;BME280;68459;50.836;19.138;2023-08-06T05:35:15;96958.13;;;19.30;82.73
74975;BME280;68459;50.836;19.138;2023-08-06T05:38:19;96952.66;;;19.30;82.74
74975;BME280;68459;50.836;19.138;2023-08-06T05:41:23;96947.50;;;19.29;82.95
74975;BME280;68459;50.836;19.138;2023-08-06T05:44:28;96940.91;;;19.30;82.83
74975;BME280;68459;50.836;19.138;2023-08-06T05:47:32;96931.59;;;19.31;82.92
74975;BME280;68459;50.836;19.138;2023-08-06T05:50:35;96922.72;;;19.34;82.98
74975;BME280;68459;50.836;19.138;2023-08-06T05:53:39;96924.81;;;19.37;82.85
74975;BME280;68459;50.836;19.138;2023-08-06T05:56:43;96924.97;;;19.40;82.87
74975;BME280;68459;50.836;19.138;2023-08-06T05:59:48;96913.72;;;19.42;82.93
74975;BME280;68459;50.836;19.138;2023-08-06T06:02:52;96905.66;;;19.45;83.07
74975;BME280;68459;50.836;19.138;2023-08-06T06:05:56;96901.19;;;19.49;82.88
74975;BME280;68459;50.836;19.138;2023-08-06T06:08:59;96897.16;;;19.55;82.81
74975;BME280;68459;50.836;19.138;2023-08-06T06:12:05;96887.97;;;19.60;82.84
74975;BME280;68459;50.836;19.138;2023-08-06T06:15:11;96885.06;;;19.65;82.74
74975;BME280;68459;50.836;19.138;2023-08-06T06:18:14;96880.56;;;19.69;82.56
74975;BME280;68459;50.836;19.138;2023-08-06T06:21:18;96878.75;;;19.73;82.45
74975;BME280;68459;50.836;19.138;2023-08-06T06:24:22;96873.44;;;19.77;82.36
74975;BME280;68459;50.836;19.138;2023-08-06T06:27:25;96858.78;;;19.81;82.17
74975;BME280;68459;50.836;19.138;2023-08-06T06:30:30;96859.06;;;19.88;82.16
74975;BME280;68459;50.836;19.138;2023-08-06T06:33:34;96849.09;;;19.92;82.04
74975;BME280;68459;50.836;19.138;2023-08-06T06:36:38;96845.38;;;19.97;82.00
74975;BME280;68459;50.836;19.138;2023-08-06T06:39:41;96842.44;;;20.02;81.93
74975;BME280;68459;50.836;19.138;2023-08-06T06:42:46;96817.31;;;20.09;81.78
74975;BME280;68459;50.836;19.138;2023-08-06T06:45:55;96815.31;;;20.18;81.64
74975;BME280;68459;50.836;19.138;2023-08-06T06:49:00;96820.41;;;20.28;81.55
74975;BME280;68459;50.836;19.138;2023-08-06T06:52:04;96807.00;;;20.35;80.93
74975;BME280;68459;50.836;19.138;2023-08-06T06:55:08;96806.66;;;20.45;81.31
74975;BME280;68459;50.836;19.138;2023-08-06T06:58:12;96808.84;;;20.52;80.90
74975;BME280;68459;50.836;19.138;2023-08-06T07:01:17;96807.38;;;20.54;80.87
74975;BME280;68459;50.836;19.138;2023-08-06T07:04:21;96813.19;;;20.53;80.73
74975;BME280;68459;50.836;19.138;2023-08-06T07:07:25;96811.47;;;20.48;80.40
74975;BME280;68459;50.836;19.138;2023-08-06T07:10:29;96801.03;;;20.42;80.54
74975;BME280;68459;50.836;19.138;2023-08-06T07:13:34;96803.78;;;20.33;80.95
74975;BME280;68459;50.836;19.138;2023-08-06T07:16:39;96790.50;;;20.23;80.92
74975;BME280;68459;50.836;19.138;2023-08-06T07:19:43;96796.16;;;20.18;80.92
74975;BME280;68459;50.836;19.138;2023-08-06T07:22:46;96787.66;;;20.11;81.38
74975;BME280;68459;50.836;19.138;2023-08-06T07:25:50;96782.06;;;20.07;81.22
74975;BME280;68459;50.836;19.138;2023-08-06T07:28:54;96782.56;;;20.01;81.32
74975;BME280;68459;50.836;19.138;2023-08-06T07:31:59;96781.81;;;19.91;81.56
74975;BME280;68459;50.836;19.138;2023-08-06T07:35:03;96775.38;;;19.87;81.82
74975;BME280;68459;50.836;19.138;2023-08-06T07:38:10;96761.22;;;19.85;81.77
74975;BME280;68459;50.836;19.138;2023-08-06T07:41:14;96752.56;;;19.83;81.75
74975;BME280;68459;50.836;19.138;2023-08-06T07:44:18;96752.75;;;19.78;81.97
74975;BME280;68459;50.836;19.138;2023-08-06T07:47:23;96740.03;;;19.74;82.08
74975;BME280;68459;50.836;19.138;2023-08-06T07:50:27;96734.44;;;19.70;82.11
74975;BME280;68459;50.836;19.138;2023-08-06T07:53:31;96736.72;;;19.68;82.17
74975;BME280;68459;50.836;19.138;2023-08-06T07:56:35;96734.63;;;19.65;82.20
74975;BME280;68459;50.836;19.138;2023-08-06T07:59:39;96739.28;;;19.65;82.40
74975;BME280;68459;50.836;19.138;2023-08-06T08:02:44;96735.75;;;19.64;82.27
74975;BME280;68459;50.836;19.138;2023-08-06T08:05:48;96738.00;;;19.62;82.35
74975;BME280;68459;50.836;19.138;2023-08-06T08:08:54;96747.34;;;19.61;82.21
74975;BME280;68459;50.836;19.138;2023-08-06T08:11:58;96758.13;;;19.57;82.33
74975;BME280;68459;50.836;19.138;2023-08-06T08:15:04;96760.75;;;19.54;82.39
74975;BME280;68459;50.836;19.138;2023-08-06T08:18:10;96751.41;;;19.55;82.49
74975;BME280;68459;50.836;19.138;2023-08-06T08:21:14;96748.69;;;19.55;82.46
74975;BME280;68459;50.836;19.138;2023-08-06T08:24:18;96740.94;;;19.57;82.65
74975;BME280;68459;50.836;19.138;2023-08-06T08:27:22;96737.53;;;19.60;82.68
74975;BME280;68459;50.836;19.138;2023-08-06T08:30:26;96748.16;;;19.62;82.54
74975;BME280;68459;50.836;19.138;2023-08-06T08:33:31;96740.41;;;19.64;82.82
74975;BME280;68459;50.836;19.138;2023-08-06T08:36:35;96759.25;;;19.65;82.68
74975;BME280;68459;50.836;19.138;2023-08-06T08:39:39;96777.59;;;19.65;82.42
74975;BME280;68459;50.836;19.138;2023-08-06T08:42:43;96755.19;;;19.71;82.60
74975;BME280;68459;50.836;19.138;2023-08-06T08:45:49;96784.81;;;19.69;82.92
74975;BME280;68459;50.836;19.138;2023-08-06T08:48:55;96820.59;;;19.38;82.20
74975;BME280;68459;50.836;19.138;2023-08-06T08:52:02;96807.34;;;18.76;82.40
74975;BME280;68459;50.836;19.138;2023-08-06T08:55:08;96752.78;;;18.11;83.29
74975;BME280;68459;50.836;19.138;2023-08-06T08:58:13;96747.91;;;17.73;83.86
74975;BME280;68459;50.836;19.138;2023-08-06T09:01:16;96723.84;;;17.36;84.08
74975;BME280;68459;50.836;19.138;2023-08-06T09:04:22;96697.78;;;17.13;84.43
74975;BME280;68459;50.836;19.138;2023-08-06T09:07:29;96742.06;;;16.96;84.74
74975;BME280;68459;50.836;19.138;2023-08-06T09:10:36;96842.78;;;16.87;84.88
74975;BME280;68459;50.836;19.138;2023-08-06T09:13:41;96865.28;;;16.79;84.95
74975;BME280;68459;50.836;19.138;2023-08-06T09:16:46;96832.34;;;16.67;85.02
74975;BME280;68459;50.836;19.138;2023-08-06T09:19:52;96798.53;;;16.46;85.03
74975;BME280;68459;50.836;19.138;2023-08-06T09:22:56;96787.88;;;16.35;85.60
74975;BME280;68459;50.836;19.138;2023-08-06T09:26:00;96793.72;;;16.29;85.64
74975;BME280;68459;50.836;19.138;2023-08-06T09:29:05;96810.47;;;16.36;85.65
74975;BME280;68459;50.836;19.138;2023-08-06T09:32:10;96820.19;;;16.51;85.53
74975;BME280;68459;50.836;19.138;2023-08-06T09:35:17;96799.72;;;16.53;85.71
74975;BME280;68459;50.836;19.138;2023-08-06T09:38:21;96765.31;;;16.35;85.50
74975;BME280;68459;50.836;19.138;2023-08-06T09:41:27;96774.22;;;16.13;86.00
74975;BME280;68459;50.836;19.138;2023-08-06T09:44:32;96756.50;;;16.02;86.23
74975;BME280;68459;50.836;19.138;2023-08-06T09:47:37;96737.47;;;16.02;85.78
74975;BME280;68459;50.836;19.138;2023-08-06T09:50:42;96767.16;;;16.12;86.37
74975;BME280;68459;50.836;19.138;2023-08-06T09:53:48;96767.97;;;16.13;86.40
74975;BME280;68459;50.836;19.138;2023-08-06T09:56:53;96760.00;;;16.16;85.87
74975;BME280;68459;50.836;19.138;2023-08-06T09:59:57;96774.03;;;16.10;86.06
74975;BME280;68459;50.836;19.138;2023-08-06T10:03:02;96788.03;;;16.03;86.12
74975;BME280;68459;50.836;19.138;2023-08-06T10:06:08;96781.13;;;15.97;85.52
74975;BME280;68459;50.836;19.138;2023-08-06T10:09:12;96783.13;;;15.91;86.29
74975;BME280;68459;50.836;19.138;2023-08-06T10:12:17;96771.22;;;15.87;86.19
74975;BME280;68459;50.836;19.138;2023-08-06T10:15:24;96761.00;;;15.84;85.95
74975;BME280;68459;50.836;19.138;2023-08-06T10:18:29;96762.59;;;15.72;85.86
74975;BME280;68459;50.836;19.138;2023-08-06T10:21:35;96784.16;;;15.68;85.94
74975;BME280;68459;50.836;19.138;2023-08-06T10:24:49;96787.66;;;15.68;85.90
74975;BME280;68459;50.836;19.138;2023-08-06T10:27:54;96798.25;;;15.70;85.67
74975;BME280;68459;50.836;19.138;2023-08-06T10:30:58;96819.06;;;15.75;85.51
74975;BME280;68459;50.836;19.138;2023-08-06T10:34:02;96823.31;;;15.81;85.77
74975;BME280;68459;50.836;19.138;2023-08-06T10:37:09;96816.03;;;15.90;85.63
74975;BME280;68459;50.836;19.138;2023-08-06T10:40:20;96805.97;;;16.04;85.47
74975;BME280;68459;50.836;19.138;2023-08-06T10:43:26;96810.09;;;16.15;85.06
74975;BME280;68459;50.836;19.138;2023-08-06T10:46:31;96824.78;;;16.28;85.38
74975;BME280;68459;50.836;19.138;2023-08-06T10:49:35;96818.31;;;16.37;84.69
74975;BME280;68459;50.836;19.138;2023-08-06T10:52:41;96787.53;;;16.51;85.18
74975;BME280;68459;50.836;19.138;2023-08-06T10:55:45;96817.03;;;16.71;84.77
74975;BME280;68459;50.836;19.138;2023-08-06T10:58:51;96817.03;;;16.93;84.73
74975;BME280;68459;50.836;19.138;2023-08-06T11:01:57;96811.81;;;17.05;83.79
74975;BME280;68459;50.836;19.138;2023-08-06T11:05:05;96821.09;;;17.04;83.74
74975;BME280;68459;50.836;19.138;2023-08-06T11:08:11;96813.88;;;17.00;83.55
74975;BME280;68459;50.836;19.138;2023-08-06T11:11:15;96826.44;;;16.87;83.47
74975;BME280;68459;50.836;19.138;2023-08-06T11:14:19;96820.63;;;16.80;83.40
74975;BME280;68459;50.836;19.138;2023-08-06T11:17:23;96816.78;;;16.81;83.47
74975;BME280;68459;50.836;19.138;2023-08-06T11:20:28;96836.94;;;16.80;83.32
74975;BME280;68459;50.836;19.138;2023-08-06T11:23:34;96823.28;;;16.71;83.22
74975;BME280;68459;50.836;19.138;2023-08-06T11:26:38;96816.03;;;16.67;83.60
74975;BME280;68459;50.836;19.138;2023-08-06T11:29:42;96820.63;;;16.80;83.58
74975;BME280;68459;50.836;19.138;2023-08-06T11:32:48;96830.91;;;16.83;83.46
74975;BME280;68459;50.836;19.138;2023-08-06T11:35:52;96826.69;;;16.77;83.15
74975;BME280;68459;50.836;19.138;2023-08-06T11:38:57;96814.19;;;16.76;83.39
74975;BME280;68459;50.836;19.138;2023-08-06T11:42:03;96822.41;;;16.85;83.46
74975;BME280;68459;50.836;19.138;2023-08-06T11:45:07;96806.38;;;17.05;83.67
74975;BME280;68459;50.836;19.138;2023-08-06T11:48:11;96810.53;;;17.25;83.41
74975;BME280;68459;50.836;19.138;2023-08-06T11:51:15;96790.78;;;17.51;82.77
74975;BME280;68459;50.836;19.138;2023-08-06T11:54:31;96781.66;;;17.55;81.36
74975;BME280;68459;50.836;19.138;2023-08-06T11:57:37;96770.28;;;17.62;82.33
74975;BME280;68459;50.836;19.138;2023-08-06T12:00:42;96787.25;;;17.90;82.01
74975;BME280;68459;50.836;19.138;2023-08-06T12:03:46;96789.84;;;17.95;81.57
74975;BME280;68459;50.836;19.138;2023-08-06T12:06:50;96779.38;;;17.88;80.93
74975;BME280;68459;50.836;19.138;2023-08-06T12:09:57;96782.72;;;17.76;80.89
74975;BME280;68459;50.836;19.138;2023-08-06T12:13:00;96795.06;;;17.74;80.85
74975;BME280;68459;50.836;19.138;2023-08-06T12:16:04;96808.75;;;17.60;80.94
74975;BME280;68459;50.836;19.138;2023-08-06T12:19:08;96806.22;;;17.33;81.18
74975;BME280;68459;50.836;19.138;2023-08-06T12:22:13;96828.84;;;17.11;81.53
74975;BME280;68459;50.836;19.138;2023-08-06T12:25:18;96834.47;;;16.92;81.17
74975;BME280;68459;50.836;19.138;2023-08-06T12:28:21;96856.44;;;16.73;81.46
74975;BME280;68459;50.836;19.138;2023-08-06T12:31:25;96875.00;;;16.58;81.45
74975;BME280;68459;50.836;19.138;2023-08-06T12:34:29;96875.84;;;16.31;81.87
74975;BME280;68459;50.836;19.138;2023-08-06T12:37:52;96885.25;;;16.11;81.92
74975;BME280;68459;50.836;19.138;2023-08-06T12:40:58;96896.91;;;15.98;82.52
74975;BME280;68459;50.836;19.138;2023-08-06T12:44:01;96904.97;;;15.89;82.34
74975;BME280;68459;50.836;19.138;2023-08-06T12:47:06;96905.38;;;15.83;82.59
74975;BME280;68459;50.836;19.138;2023-08-06T12:50:10;96905.97;;;15.80;82.47
74975;BME280;68459;50.836;19.138;2023-08-06T12:53:14;96905.53;;;15.73;82.93
74975;BME280;68459;50.836;19.138;2023-08-06T12:56:19;96912.41;;;15.70;82.82
74975;BME280;68459;50.836;19.138;2023-08-06T12:59:22;96913.22;;;15.71;83.16
74975;BME280;68459;50.836;19.138;2023-08-06T13:02:26;96918.25;;;15.77;83.21
74975;BME280;68459;50.836;19.138;2023-08-06T13:05:32;96928.75;;;15.84;82.98
74975;BME280;68459;50.836;19.138;2023-08-06T13:08:36;96935.47;;;15.86;82.71
74975;BME280;68459;50.836;19.138;2023-08-06T13:11:42;96937.38;;;15.86;82.58
74975;BME280;68459;50.836;19.138;2023-08-06T13:14:48;96929.03;;;15.82;82.26
74975;BME280;68459;50.836;19.138;2023-08-06T13:17:52;96934.19;;;15.84;82.59
74975;BME280;68459;50.836;19.138;2023-08-06T13:20:56;96928.31;;;15.77;82.43
74975;BME280;68459;50.836;19.138;2023-08-06T13:24:01;96932.72;;;15.73;82.60
74975;BME280;68459;50.836;19.138;2023-08-06T13:27:06;96938.66;;;15.75;82.85
74975;BME280;68459;50.836;19.138;2023-08-06T13:30:11;96935.28;;;15.83;82.23
74975;BME280;68459;50.836;19.138;2023-08-06T13:33:15;96922.59;;;15.92;82.36
74975;BME280;68459;50.836;19.138;2023-08-06T13:36:19;96923.13;;;16.08;82.36
74975;BME280;68459;50.836;19.138;2023-08-06T13:39:23;96938.13;;;16.32;81.91
74975;BME280;68459;50.836;19.138;2023-08-06T13:42:28;96930.78;;;16.47;81.55
74975;BME280;68459;50.836;19.138;2023-08-06T13:45:31;96923.41;;;16.61;81.59
74975;BME280;68459;50.836;19.138;2023-08-06T13:48:37;96918.84;;;16.84;81.49
74975;BME280;68459;50.836;19.138;2023-08-06T13:51:40;96910.56;;;16.89;80.93
74975;BME280;68459;50.836;19.138;2023-08-06T13:54:44;96918.50;;;16.99;80.49
74975;BME280;68459;50.836;19.138;2023-08-06T13:57:49;96919.97;;;17.05;80.41
74975;BME280;68459;50.836;19.138;2023-08-06T14:00:53;96924.31;;;17.06;80.58
74975;BME280;68459;50.836;19.138;2023-08-06T14:03:58;96928.59;;;16.98;80.47
74975;BME280;68459;50.836;19.138;2023-08-06T14:07:02;96918.00;;;16.97;80.52
74975;BME280;68459;50.836;19.138;2023-08-06T14:10:07;96948.75;;;16.97;80.55
74975;BME280;68459;50.836;19.138;2023-08-06T14:13:12;96945.66;;;16.90;80.44
74975;BME280;68459;50.836;19.138;2023-08-06T14:16:16;96952.31;;;16.84;79.92
74975;BME280;68459;50.836;19.138;2023-08-06T14:19:21;96956.38;;;16.73;80.33
74975;BME280;68459;50.836;19.138;2023-08-06T14:22:25;96966.25;;;16.69;80.61
74975;BME280;68459;50.836;19.138;2023-08-06T14:25:29;96964.56;;;16.73;80.84
74975;BME280;68459;50.836;19.138;2023-08-06T14:28:35;96968.56;;;16.89;80.35
74975;BME280;68459;50.836;19.138;2023-08-06T14:31:39;96971.84;;;17.14;80.18
74975;BME280;68459;50.836;19.138;2023-08-06T14:34:42;96981.69;;;17.23;79.52
74975;BME280;68459;50.836;19.138;2023-08-06T14:37:46;96987.25;;;17.18;79.03
74975;BME280;68459;50.836;19.138;2023-08-06T14:40:50;96999.38;;;17.12;79.16
74975;BME280;68459;50.836;19.138;2023-08-06T14:43:55;96982.59;;;17.19;79.34
74975;BME280;68459;50.836;19.138;2023-08-06T14:46:59;96980.28;;;17.26;79.61
74975;BME280;68459;50.836;19.138;2023-08-06T14:50:03;96985.31;;;17.19;79.21
74975;BME280;68459;50.836;19.138;2023-08-06T14:53:07;96985.19;;;17.01;79.27
74975;BME280;68459;50.836;19.138;2023-08-06T14:56:13;97004.56;;;16.86;79.13
74975;BME280;68459;50.836;19.138;2023-08-06T14:59:19;97011.44;;;16.70;79.48
74975;BME280;68459;50.836;19.138;2023-08-06T15:02:22;97014.34;;;16.60;79.98
74975;BME280;68459;50.836;19.138;2023-08-06T15:05:26;97020.00;;;16.50;80.12
74975;BME280;68459;50.836;19.138;2023-08-06T15:08:30;97017.06;;;16.46;80.39
74975;BME280;68459;50.836;19.138;2023-08-06T15:11:34;97006.97;;;16.47;79.98
74975;BME280;68459;50.836;19.138;2023-08-06T15:14:39;96999.50;;;16.38;80.46
74975;BME280;68459;50.836;19.138;2023-08-06T15:17:43;96994.56;;;16.40;80.68
74975;BME280;68459;50.836;19.138;2023-08-06T15:20:47;96988.00;;;16.42;80.65
74975;BME280;68459;50.836;19.138;2023-08-06T15:23:51;96976.53;;;16.45;80.36
74975;BME280;68459;50.836;19.138;2023-08-06T15:26:57;96969.47;;;16.44;80.55
74975;BME280;68459;50.836;19.138;2023-08-06T15:30:02;96973.09;;;16.39;80.16
74975;BME280;68459;50.836;19.138;2023-08-06T15:33:07;96960.19;;;16.31;80.76
74975;BME280;68459;50.836;19.138;2023-08-06T15:36:11;96960.91;;;16.36;80.78
74975;BME280;68459;50.836;19.138;2023-08-06T15:39:14;96968.88;;;16.47;80.42
74975;BME280;68459;50.836;19.138;2023-08-06T15:42:19;96985.50;;;16.59;80.87
74975;BME280;68459;50.836;19.138;2023-08-06T15:45:24;97012.66;;;16.64;80.20
74975;BME280;68459;50.836;19.138;2023-08-06T15:48:29;97043.16;;;16.47;80.18
74975;BME280;68459;50.836;19.138;2023-08-06T15:51:32;97051.81;;;16.35;80.34
74975;BME280;68459;50.836;19.138;2023-08-06T15:54:37;97077.78;;;16.28;80.71
74975;BME280;68459;50.836;19.138;2023-08-06T15:57:41;97086.34;;;16.21;80.56
74975;BME280;68459;50.836;19.138;2023-08-06T16:00:46;97109.00;;;16.17;81.05
74975;BME280;68459;50.836;19.138;2023-08-06T16:03:54;97096.16;;;16.03;81.12
74975;BME280;68459;50.836;19.138;2023-08-06T16:06:59;97102.47;;;15.99;81.16